Terminal Aerodrome Forecast
Issued by NWS Grand Junction, CO

Home | Current Version | Previous Version | Text Only | Print | Product List | Glossary On
Versions: 1 2 3 4 5 6 7 8 9 10 11 12 13
000
FTUS45 KGJT 171134
TAFGJT
TAF
KGJT 171134Z 1712/1812 14007KT P6SM FEW200
     FM171800 23006KT P6SM FEW130
     FM172000 27008KT P6SM SCT130
      TEMPO 1720/1724 29010G18KT P6SM SCT140
     FM180200 36006KT P6SM FEW250
     FM180300 04006KT P6SM FEW250
     FM180600 09006KT P6SM FEW200=

USA.gov is the U.S. government's official web portal to all federal, state and local government web resources and services.